Time;durP1;ratioP1;P1;durP2;ratioP2;P2;SDS_P1;SDS_P2;PMS_P1;PMS_P2;Temp;Humidity;BMP_temperature;BMP_pressure;BME280_temperature;BME280_humidity;BME280_pressure;Samples;Min_cycle;Max_cycle;Signal;HPM_P1;HPM_P2
2022/04/03 00:00:54;;;;;;;18.33;14.57;;;;;;;-143.11;100.00;65634.97;5097091;28;20178;-64
2022/04/03 00:03:20;;;;;;;17.13;12.00;;;;;;;-143.11;100.00;65634.97;5097169;28;20185;-64
2022/04/03 00:05:45;;;;;;;16.90;12.47;;;;;;;-143.11;100.00;65634.97;5096981;28;20342;-65
2022/04/03 00:08:12;;;;;;;18.40;13.47;;;;;;;-143.11;100.00;65634.97;5097144;28;20227;-65
2022/04/03 00:10:39;;;;;;;15.77;13.00;;;;;;;-143.11;100.00;65634.97;5096998;28;20216;-65
2022/04/03 00:13:06;;;;;;;16.30;12.60;;;;;;;-143.11;100.00;65634.97;5097223;28;20280;-64
2022/04/03 00:15:32;;;;;;;19.43;12.87;;;;;;;-143.11;100.00;65634.97;5097092;28;20188;-65
2022/04/03 00:17:57;;;;;;;19.80;13.67;;;;;;;-143.11;100.00;65634.97;5097228;28;20196;-57
2022/04/03 00:20:23;;;;;;;19.23;13.30;;;;;;;-143.11;100.00;65634.97;5096972;28;20339;-54
2022/04/03 00:22:49;;;;;;;16.23;12.07;;;;;;;-143.11;100.00;65634.97;5114884;28;20270;-56
2022/04/03 00:25:15;;;;;;;15.83;12.13;;;;;;;-143.11;100.00;65634.97;5096669;28;20201;-57
2022/04/03 00:27:41;;;;;;;16.70;12.50;;;;;;;-143.11;100.00;65634.97;5096634;28;20203;-57
2022/04/03 00:30:07;;;;;;;15.87;12.37;;;;;;;-143.11;100.00;65634.97;5096888;28;20198;-57
2022/04/03 00:32:32;;;;;;;14.33;11.60;;;;;;;-143.11;100.00;65634.97;5096603;28;20200;-61
2022/04/03 00:34:58;;;;;;;14.73;10.67;;;;;;;-143.11;100.00;65634.97;5096478;28;20193;-58
2022/04/03 00:37:23;;;;;;;17.67;11.30;;;;;;;-143.11;100.00;65634.97;5096782;28;20189;-51
2022/04/03 00:39:48;;;;;;;16.83;10.87;;;;;;;-143.11;100.00;65634.97;5096317;28;20189;-50
2022/04/03 00:42:14;;;;;;;14.47;11.10;;;;;;;-143.11;100.00;65634.97;5096853;28;20182;-52
2022/04/03 00:44:40;;;;;;;13.10;9.93;;;;;;;-143.11;100.00;65634.97;5096396;28;20185;-52
2022/04/03 00:47:05;;;;;;;14.03;10.93;;;;;;;-143.11;100.00;65634.97;5096398;28;20245;-52
2022/04/03 00:49:31;;;;;;;15.77;11.80;;;;;;;-143.11;100.00;65634.97;5096351;28;20209;-51
2022/04/03 00:51:57;;;;;;;17.40;11.93;;;;;;;-143.11;100.00;65634.97;5096515;28;20185;-56
2022/04/03 00:54:23;;;;;;;14.63;10.73;;;;;;;-143.11;100.00;65634.97;5096448;28;20215;-56
2022/04/03 00:56:49;;;;;;;15.17;11.70;;;;;;;-143.11;100.00;65634.97;5096174;28;20181;-57
2022/04/03 00:59:15;;;;;;;13.67;10.97;;;;;;;-143.11;100.00;65634.97;5096194;28;20198;-53
2022/04/03 01:01:42;;;;;;;16.67;11.93;;;;;;;-143.11;100.00;65634.97;5096334;28;20192;-54
2022/04/03 01:04:08;;;;;;;17.23;12.03;;;;;;;-143.11;100.00;65634.97;5096157;28;20192;-56
2022/04/03 01:06:33;;;;;;;15.27;10.97;;;;;;;-143.11;100.00;65634.97;5095759;28;20182;-57
2022/04/03 01:08:59;;;;;;;14.57;10.93;;;;;;;-143.11;100.00;65634.97;5095262;28;20206;-57
2022/04/03 01:11:24;;;;;;;13.60;11.17;;;;;;;-143.11;100.00;65634.97;5095877;28;20292;-59
2022/04/03 01:13:51;;;;;;;14.37;11.37;;;;;;;-143.11;100.00;65634.97;5096152;28;20207;-55
2022/04/03 01:16:18;;;;;;;15.63;12.17;;;;;;;-143.11;100.00;65634.97;5096184;28;20176;-52
2022/04/03 01:18:43;;;;;;;14.77;11.77;;;;;;;-143.11;100.00;65634.97;5096232;28;20195;-53
2022/04/03 01:21:10;;;;;;;15.23;12.13;;;;;;;-143.11;100.00;65634.97;5096311;28;20269;-49
2022/04/03 01:23:35;;;;;;;15.53;12.03;;;;;;;-143.11;100.00;65634.97;5096213;28;20206;-52
2022/04/03 01:26:01;;;;;;;14.30;11.63;;;;;;;-143.11;100.00;65634.97;5095901;28;20202;-52
2022/04/03 01:28:26;;;;;;;16.37;13.00;;;;;;;-143.11;100.00;65634.97;5095819;28;20311;-61
2022/04/03 01:30:52;;;;;;;16.63;12.70;;;;;;;-143.11;100.00;65634.97;5095799;28;20205;-64
2022/04/03 01:33:17;;;;;;;16.57;13.07;;;;;;;-143.11;100.00;65634.97;5096159;28;20235;-56
2022/04/03 01:35:43;;;;;;;18.00;12.93;;;;;;;-143.11;100.00;65634.97;5095699;28;20316;-57
2022/04/03 01:38:08;;;;;;;17.53;12.87;;;;;;;-143.11;100.00;65634.97;5095730;28;20239;-54
2022/04/03 01:40:35;;;;;;;14.83;13.27;;;;;;;-143.11;100.00;65634.97;5095222;28;20235;-55
2022/04/03 01:43:06;;;;;;;16.70;13.20;;;;;;;-143.11;100.00;65634.97;5095481;28;20181;-54
2022/04/03 01:45:35;;;;;;;16.27;13.40;;;;;;;-143.11;100.00;65634.97;5095684;28;20186;-53
2022/04/03 01:48:01;;;;;;;16.67;13.33;;;;;;;-143.11;100.00;65634.97;5095522;28;20198;-56
2022/04/03 01:50:27;;;;;;;16.57;13.60;;;;;;;-143.11;100.00;65634.97;5095716;28;20205;-65
2022/04/03 01:52:53;;;;;;;15.93;13.47;;;;;;;-143.11;100.00;65634.97;5095714;28;20182;-65
2022/04/03 01:55:18;;;;;;;16.03;12.90;;;;;;;-143.11;100.00;65634.97;5095530;28;20197;-65
2022/04/03 01:57:44;;;;;;;18.00;14.10;;;;;;;-143.11;100.00;65634.97;5095696;28;20186;-65
2022/04/03 02:00:10;;;;;;;17.57;13.13;;;;;;;-143.11;100.00;65634.97;5095506;28;20274;-65
2022/04/03 02:02:39;;;;;;;20.10;15.13;;;;;;;-143.11;100.00;65634.97;5095556;28;20257;-64
2022/04/03 02:05:08;;;;;;;20.90;16.40;;;;;;;-143.11;100.00;65634.97;5095527;28;20253;-55
2022/04/03 02:07:34;;;;;;;19.93;14.60;;;;;;;-143.11;100.00;65634.97;5095347;28;20186;-58
2022/04/03 02:10:01;;;;;;;22.87;15.70;;;;;;;-143.11;100.00;65634.97;5095392;28;20503;-51
2022/04/03 02:12:26;;;;;;;19.33;15.13;;;;;;;-143.11;100.00;65634.97;5095535;28;20185;-54
2022/04/03 02:14:52;;;;;;;19.30;14.97;;;;;;;-143.11;100.00;65634.97;5095243;28;20182;-52
2022/04/03 02:17:17;;;;;;;21.57;15.73;;;;;;;-143.11;100.00;65634.97;5095358;28;20217;-49
2022/04/03 02:19:43;;;;;;;19.67;14.93;;;;;;;-143.11;100.00;65634.97;5095099;28;20184;-53
2022/04/03 02:22:08;;;;;;;21.47;15.67;;;;;;;-143.11;100.00;65634.97;5093834;28;20240;-51
2022/04/03 02:24:34;;;;;;;18.43;14.53;;;;;;;-143.11;100.00;65634.97;5095591;28;20213;-60
2022/04/03 02:26:59;;;;;;;18.70;14.20;;;;;;;-143.11;100.00;65634.97;5095268;28;20185;-62
2022/04/03 02:29:24;;;;;;;18.27;15.30;;;;;;;-143.11;100.00;65634.97;5094976;28;20212;-62
2022/04/03 02:31:50;;;;;;;20.47;14.77;;;;;;;-143.11;100.00;65634.97;5094796;28;20215;-61
2022/04/03 02:34:17;;;;;;;20.07;15.03;;;;;;;-143.11;100.00;65634.97;5094885;28;20310;-61
2022/04/03 02:36:43;;;;;;;20.27;15.40;;;;;;;-143.11;100.00;65634.97;5094679;28;20189;-61
2022/04/03 02:39:09;;;;;;;19.10;14.97;;;;;;;-143.11;100.00;65634.97;5094646;28;20177;-61
2022/04/03 02:41:34;;;;;;;19.77;15.00;;;;;;;-143.11;100.00;65634.97;5094845;28;20186;-54
2022/04/03 02:44:00;;;;;;;20.90;15.27;;;;;;;-143.11;100.00;65634.97;5094784;28;20325;-56
2022/04/03 02:46:25;;;;;;;22.27;15.73;;;;;;;-143.11;100.00;65634.97;5094928;28;20188;-64
2022/04/03 02:48:50;;;;;;;20.40;15.33;;;;;;;-143.11;100.00;65634.97;5094802;28;20191;-64
2022/04/03 02:51:16;;;;;;;19.77;15.10;;;;;;;-143.11;100.00;65634.97;5094675;28;20238;-64
2022/04/03 02:53:41;;;;;;;22.03;16.40;;;;;;;-143.11;100.00;65634.97;5094517;28;20185;-65
2022/04/03 02:56:06;;;;;;;22.67;15.10;;;;;;;-143.11;100.00;65634.97;5094606;28;20561;-64
2022/04/03 02:58:31;;;;;;;19.57;15.77;;;;;;;-143.11;100.00;65634.97;5094474;28;20245;-64
2022/04/03 03:00:57;;;;;;;21.87;16.23;;;;;;;-143.11;100.00;65634.97;5094921;28;20221;-56
2022/04/03 03:03:22;;;;;;;21.23;15.83;;;;;;;-143.11;100.00;65634.97;5094399;28;20185;-65
2022/04/03 03:05:47;;;;;;;20.97;15.13;;;;;;;-143.11;100.00;65634.97;5094219;28;20182;-64
2022/04/03 03:08:13;;;;;;;19.03;14.77;;;;;;;-143.11;100.00;65634.97;5094633;28;20280;-64
2022/04/03 03:10:39;;;;;;;19.97;15.93;;;;;;;-143.11;100.00;65634.97;5093954;28;20205;-64
2022/04/03 03:13:05;;;;;;;22.17;14.90;;;;;;;-143.11;100.00;65634.97;5094437;28;20187;-65
2022/04/03 03:15:30;;;;;;;18.83;15.03;;;;;;;-143.11;100.00;65634.97;5094409;28;20181;-65
2022/04/03 03:17:56;;;;;;;21.20;15.33;;;;;;;-143.11;100.00;65634.97;5094180;28;20182;-65
2022/04/03 03:20:22;;;;;;;18.83;14.90;;;;;;;-143.11;100.00;65634.97;5094419;28;20260;-60
2022/04/03 03:22:48;;;;;;;19.10;14.37;;;;;;;-143.11;100.00;65634.97;5094311;28;20188;-61
2022/04/03 03:25:13;;;;;;;20.23;15.00;;;;;;;-143.11;100.00;65634.97;5094227;28;20202;-61
2022/04/03 03:27:39;;;;;;;19.97;15.20;;;;;;;-143.11;100.00;65634.97;5094246;28;20185;-61
2022/04/03 03:30:06;;;;;;;20.37;14.77;;;;;;;-143.11;100.00;65634.97;5094020;28;20232;-60
2022/04/03 03:32:32;;;;;;;20.17;14.87;;;;;;;-143.11;100.00;65634.97;5094826;28;20265;-61
2022/04/03 03:34:58;;;;;;;19.70;14.83;;;;;;;-143.11;100.00;65634.97;5097470;28;20188;-62
2022/04/03 03:37:23;;;;;;;17.80;14.77;;;;;;;-143.11;100.00;65634.97;5097493;28;20193;-52
2022/04/03 03:39:48;;;;;;;18.80;14.30;;;;;;;-143.11;100.00;65634.97;5097593;28;20272;-59
2022/04/03 03:42:14;;;;;;;17.63;14.03;;;;;;;-143.11;100.00;65634.97;5097968;28;20188;-58
2022/04/03 03:44:39;;;;;;;21.57;14.63;;;;;;;-143.11;100.00;65634.97;5097558;28;20221;-59
2022/04/03 03:47:05;;;;;;;17.80;14.43;;;;;;;-143.11;100.00;65634.97;5097843;28;20212;-59
2022/04/03 03:49:31;;;;;;;18.60;13.87;;;;;;;-143.11;100.00;65634.97;5097482;28;20252;-57
2022/04/03 03:51:57;;;;;;;20.10;14.10;;;;;;;-143.11;100.00;65634.97;5097607;28;20207;-59
2022/04/03 03:54:22;;;;;;;18.67;14.63;;;;;;;-143.11;100.00;65634.97;5097439;28;20185;-57
2022/04/03 03:56:48;;;;;;;19.30;14.60;;;;;;;-143.11;100.00;65634.97;5115625;28;20194;-61
2022/04/03 03:59:14;;;;;;;28.10;14.57;;;;;;;-143.11;100.00;65634.97;5097388;28;20193;-61
2022/04/03 04:01:40;;;;;;;17.97;14.77;;;;;;;-143.11;100.00;65634.97;5097433;28;20208;-60
2022/04/03 04:04:05;;;;;;;17.17;13.20;;;;;;;-143.11;100.00;65634.97;5097603;28;20190;-60
2022/04/03 04:06:31;;;;;;;19.47;14.40;;;;;;;-143.11;100.00;65634.97;5097129;28;20180;-59
2022/04/03 04:08:56;;;;;;;18.50;14.07;;;;;;;-143.11;100.00;65634.97;5097216;28;20250;-61
2022/04/03 04:11:21;;;;;;;17.73;13.60;;;;;;;-143.11;100.00;65634.97;5097191;28;20189;-60
2022/04/03 04:13:47;;;;;;;18.30;14.63;;;;;;;-143.11;100.00;65634.97;5097124;28;20173;-59
2022/04/03 04:16:13;;;;;;;17.23;13.90;;;;;;;-143.11;100.00;65634.97;5097443;28;20279;-51
2022/04/03 04:18:38;;;;;;;18.77;13.90;;;;;;;-143.11;100.00;65634.97;5097141;28;20189;-51
2022/04/03 04:21:04;;;;;;;18.40;13.23;;;;;;;-143.11;100.00;65634.97;5097280;28;20182;-51
2022/04/03 04:23:30;;;;;;;18.67;12.90;;;;;;;-143.11;100.00;65634.97;5097138;28;20196;-53
2022/04/03 04:25:55;;;;;;;17.50;13.77;;;;;;;-143.11;100.00;65634.97;5096770;28;20201;-51
2022/04/03 04:28:20;;;;;;;15.87;12.70;;;;;;;-143.11;100.00;65634.97;5096905;28;20210;-54
2022/04/03 04:30:46;;;;;;;18.03;14.23;;;;;;;-143.11;100.00;65634.97;5096811;28;20210;-51
2022/04/03 04:33:11;;;;;;;18.37;14.30;;;;;;;-143.11;100.00;65634.97;5096923;28;20240;-60
2022/04/03 04:35:37;;;;;;;19.17;14.30;;;;;;;-143.11;100.00;65634.97;5096633;28;20190;-51
2022/04/03 04:38:02;;;;;;;19.30;14.87;;;;;;;-143.11;100.00;65634.97;5096657;28;20185;-53
2022/04/03 04:40:28;;;;;;;18.90;14.83;;;;;;;-143.11;100.00;65634.97;5097025;28;20193;-52
2022/04/03 04:42:55;;;;;;;21.27;14.57;;;;;;;-143.11;100.00;65634.97;5096554;28;20190;-49
2022/04/03 04:45:21;;;;;;;19.13;15.23;;;;;;;-143.11;100.00;65634.97;5095543;28;20258;-53
2022/04/03 04:47:48;;;;;;;20.47;14.97;;;;;;;-143.11;100.00;65634.97;5096343;28;20182;-54
2022/04/03 04:50:15;;;;;;;20.03;15.30;;;;;;;-143.11;100.00;65634.97;5096665;28;20208;-56
2022/04/03 04:52:41;;;;;;;21.57;15.80;;;;;;;-143.11;100.00;65634.97;5096382;28;20410;-59
2022/04/03 04:55:08;;;;;;;21.93;15.80;;;;;;;-143.11;100.00;65634.97;5096625;28;20235;-53
2022/04/03 04:57:37;;;;;;;21.43;15.63;;;;;;;-143.11;100.00;65634.97;5096385;28;20227;-52
2022/04/03 05:00:06;;;;;;;21.57;16.23;;;;;;;-143.11;100.00;65634.97;5096267;28;20197;-52
2022/04/03 05:02:31;;;;;;;22.07;15.90;;;;;;;-143.11;100.00;65634.97;5096383;28;20222;-53
2022/04/03 05:04:56;;;;;;;21.97;16.93;;;;;;;-143.11;100.00;65634.97;5096209;28;20205;-50
2022/04/03 05:07:22;;;;;;;21.93;16.17;;;;;;;-143.11;100.00;65634.97;5096114;28;20271;-53
2022/04/03 05:09:49;;;;;;;21.13;16.33;;;;;;;-143.11;100.00;65634.97;5095928;28;20205;-64
2022/04/03 05:12:15;;;;;;;22.40;16.30;;;;;;;-143.11;100.00;65634.97;5096530;28;20176;-48
2022/04/03 05:14:42;;;;;;;20.20;14.83;;;;;;;-143.11;100.00;65634.97;5096270;28;20264;-52
2022/04/03 05:17:07;;;;;;;20.07;16.23;;;;;;;-143.11;100.00;65634.97;5096049;28;20177;-52
2022/04/03 05:19:36;;;;;;;20.67;15.87;;;;;;;-143.11;100.00;65634.97;5096192;28;20185;-53
2022/04/03 05:22:02;;;;;;;23.27;15.77;;;;;;;-143.11;100.00;65634.97;5096064;28;20288;-54
2022/04/03 05:24:27;;;;;;;20.17;15.47;;;;;;;-143.11;100.00;65634.97;5096082;28;20244;-52
2022/04/03 05:26:53;;;;;;;18.90;15.20;;;;;;;-143.11;100.00;65634.97;5096112;28;20177;-60
2022/04/03 05:29:18;;;;;;;22.47;15.90;;;;;;;-143.11;100.00;65634.97;5096005;28;20198;-62
2022/04/03 05:31:44;;;;;;;21.13;15.57;;;;;;;-143.11;100.00;65634.97;5095931;28;20203;-53
2022/04/03 05:34:10;;;;;;;22.27;16.23;;;;;;;-143.11;100.00;65634.97;5096247;28;20221;-50
2022/04/03 05:36:35;;;;;;;21.87;15.87;;;;;;;-143.11;100.00;65634.97;5095653;28;20202;-53
2022/04/03 05:39:04;;;;;;;20.07;15.10;;;;;;;-143.11;100.00;65634.97;5095668;28;20193;-49
2022/04/03 05:41:30;;;;;;;22.57;17.07;;;;;;;-143.11;100.00;65634.97;5095748;28;20184;-52
2022/04/03 05:43:56;;;;;;;43.00;26.90;;;;;;;-143.11;100.00;65634.97;5095480;28;20190;-51
2022/04/03 05:46:21;;;;;;;23.97;16.97;;;;;;;-143.11;100.00;65634.97;5095727;28;20177;-62
2022/04/03 05:48:47;;;;;;;21.70;16.27;;;;;;;-143.11;100.00;65634.97;5095629;28;20182;-59
2022/04/03 05:51:12;;;;;;;22.23;16.83;;;;;;;-143.11;100.00;65634.97;5095706;28;20188;-60
2022/04/03 05:53:38;;;;;;;19.33;15.17;;;;;;;-143.11;100.00;65634.97;5095552;28;20204;-60
2022/04/03 05:56:04;;;;;;;19.40;14.63;;;;;;;-143.11;100.00;65634.97;5095538;28;20170;-61
2022/04/03 05:58:29;;;;;;;20.40;14.70;;;;;;;-143.11;100.00;65634.97;5095194;28;20177;-59
2022/04/03 06:00:54;;;;;;;20.90;15.80;;;;;;;-143.11;100.00;65634.97;5095315;28;20318;-60
2022/04/03 06:03:20;;;;;;;20.30;15.57;;;;;;;-143.11;100.00;65634.97;5095099;28;20225;-61
2022/04/03 06:05:47;;;;;;;20.03;15.27;;;;;;;-143.11;100.00;65634.97;5095177;28;20186;-53
2022/04/03 06:08:13;;;;;;;22.03;15.47;;;;;;;-143.11;100.00;65634.97;5095103;28;20182;-63
2022/04/03 06:10:38;;;;;;;21.43;15.20;;;;;;;-143.11;100.00;65634.97;5095034;28;20208;-63
2022/04/03 06:13:09;;;;;;;21.77;15.77;;;;;;;-143.11;100.00;65634.97;5095427;28;20187;-63
2022/04/03 06:15:37;;;;;;;20.30;14.90;;;;;;;-143.11;100.00;65634.97;5095440;28;20195;-64
2022/04/03 06:18:13;;;;;;;20.30;15.50;;;;;;;-143.11;100.00;65634.97;5095177;28;20208;-63
2022/04/03 06:20:40;;;;;;;20.70;15.00;;;;;;;-143.11;100.00;65634.97;5095071;28;20187;-63
2022/04/03 06:23:16;;;;;;;37.23;25.87;;;;;;;-143.11;100.00;65634.97;5095377;28;20261;-59
2022/04/03 06:25:42;;;;;;;41.87;28.47;;;;;;;-143.11;100.00;65634.97;5094775;28;20205;-58
2022/04/03 06:28:07;;;;;;;26.73;19.03;;;;;;;-143.11;100.00;65634.97;5094800;28;20186;-59
2022/04/03 06:30:34;;;;;;;22.10;16.87;;;;;;;-143.11;100.00;65634.97;5094947;28;20204;-59
2022/04/03 06:32:59;;;;;;;32.20;20.70;;;;;;;-143.11;100.00;65634.97;5094736;28;20186;-58
2022/04/03 06:35:25;;;;;;;19.40;14.93;;;;;;;-143.11;100.00;65634.97;5095125;28;20196;-59
2022/04/03 06:37:50;;;;;;;35.10;23.27;;;;;;;-143.11;100.00;65634.97;5094938;28;20182;-60
2022/04/03 06:40:16;;;;;;;21.97;15.10;;;;;;;-143.11;100.00;65634.97;5095181;28;20181;-60
2022/04/03 06:42:43;;;;;;;18.07;13.43;;;;;;;-143.11;100.00;65634.97;5094915;28;20184;-60
2022/04/03 06:45:09;;;;;;;17.50;13.57;;;;;;;-143.11;100.00;65634.97;5094615;28;20185;-53
2022/04/03 06:47:35;;;;;;;17.40;13.70;;;;;;;-143.11;100.00;65634.97;5094610;28;20187;-54
2022/04/03 06:50:01;;;;;;;22.13;15.97;;;;;;;-143.11;100.00;65634.97;5094454;28;20218;-53
2022/04/03 06:52:26;;;;;;;19.53;14.70;;;;;;;-143.11;100.00;65634.97;5094903;28;20187;-52
2022/04/03 06:54:52;;;;;;;19.63;14.20;;;;;;;-143.11;100.00;65634.97;5094392;28;20186;-54
2022/04/03 06:57:18;;;;;;;22.40;15.40;;;;;;;-143.11;100.00;65634.97;5094273;28;20271;-51
2022/04/03 06:59:45;;;;;;;16.87;12.40;;;;;;;-143.11;100.00;65634.97;5094625;28;20191;-53
2022/04/03 07:02:10;;;;;;;17.43;12.33;;;;;;;-143.11;100.00;65634.97;5094581;28;20241;-59
2022/04/03 07:04:36;;;;;;;16.37;12.97;;;;;;;-143.11;100.00;65634.97;5094317;28;20195;-60
2022/04/03 07:07:02;;;;;;;16.70;12.87;;;;;;;-143.11;100.00;65634.97;5094564;28;20188;-60
2022/04/03 07:09:28;;;;;;;22.70;14.57;;;;;;;-143.11;100.00;65634.97;5098082;28;20211;-64
2022/04/03 07:11:53;;;;;;;19.00;13.57;;;;;;;-143.11;100.00;65634.97;5097971;28;20189;-61
2022/04/03 07:14:18;;;;;;;15.90;12.57;;;;;;;-143.11;100.00;65634.97;5116366;28;20194;-62
2022/04/03 07:16:43;;;;;;;16.57;13.00;;;;;;;-143.11;100.00;65634.97;5097839;28;20201;-61
2022/04/03 07:19:10;;;;;;;19.87;12.93;;;;;;;-143.11;100.00;65634.97;5098334;28;20193;-59
2022/04/03 07:21:35;;;;;;;16.23;12.17;;;;;;;-143.11;100.00;65634.97;5098001;28;20221;-58
2022/04/03 07:24:01;;;;;;;23.90;16.40;;;;;;;-143.11;100.00;65634.97;5097932;28;20270;-52
2022/04/03 07:26:26;;;;;;;16.40;12.77;;;;;;;-143.11;100.00;65634.97;5097623;28;20594;-55
2022/04/03 07:28:52;;;;;;;16.07;12.77;;;;;;;-143.11;100.00;65634.97;5097584;28;20209;-54
2022/04/03 07:31:17;;;;;;;31.30;19.27;;;;;;;-143.11;100.00;65634.97;5097872;28;20178;-56
2022/04/03 07:33:42;;;;;;;20.97;14.87;;;;;;;-143.11;100.00;65634.97;5097937;28;20261;-58
2022/04/03 07:36:08;;;;;;;19.10;13.90;;;;;;;-143.11;100.00;65634.97;5115590;28;20190;-60
2022/04/03 07:38:33;;;;;;;20.33;13.37;;;;;;;-143.11;100.00;65634.97;5097761;28;20193;-58
2022/04/03 07:40:59;;;;;;;18.67;13.80;;;;;;;-143.11;100.00;65634.97;5097678;28;20194;-55
2022/04/03 07:43:25;;;;;;;17.53;12.97;;;;;;;-143.11;100.00;65634.97;5097807;28;20186;-53
2022/04/03 07:45:51;;;;;;;18.93;13.40;;;;;;;-143.11;100.00;65634.97;5097751;28;20650;-53
2022/04/03 07:48:16;;;;;;;26.63;18.53;;;;;;;-143.11;100.00;65634.97;5097431;28;20180;-52
2022/04/03 07:50:43;;;;;;;17.63;13.50;;;;;;;-143.11;100.00;65634.97;5097302;28;20226;-52
2022/04/03 07:53:08;;;;;;;17.87;13.03;;;;;;;-143.11;100.00;65634.97;5097075;28;20226;-54
2022/04/03 07:55:34;;;;;;;18.27;13.87;;;;;;;-143.11;100.00;65634.97;5097224;28;20187;-65
2022/04/03 07:58:00;;;;;;;17.23;12.73;;;;;;;-143.11;100.00;65634.97;5097186;28;20282;-57
2022/04/03 08:00:26;;;;;;;16.80;12.50;;;;;;;-143.11;100.00;65634.97;5097048;28;20191;-53
2022/04/03 08:02:51;;;;;;;17.90;12.97;;;;;;;-143.11;100.00;65634.97;5097124;28;20187;-52
2022/04/03 08:05:16;;;;;;;17.53;12.03;;;;;;;-143.11;100.00;65634.97;5096994;28;20187;-51
2022/04/03 08:07:44;;;;;;;22.33;15.60;;;;;;;-143.11;100.00;65634.97;5097128;28;20187;-52
2022/04/03 08:10:12;;;;;;;16.13;11.97;;;;;;;-143.11;100.00;65634.97;5096956;28;20207;-52
2022/04/03 08:12:41;;;;;;;17.20;11.33;;;;;;;-143.11;100.00;65634.97;5097300;28;20222;-60
2022/04/03 08:15:08;;;;;;;15.67;12.13;;;;;;;-143.11;100.00;65634.97;5097081;28;20184;-55
2022/04/03 08:17:34;;;;;;;17.63;13.57;;;;;;;-143.11;100.00;65634.97;5097195;28;20190;-58
2022/04/03 08:20:02;;;;;;;16.83;12.87;;;;;;;-143.11;100.00;65634.97;5097070;28;20198;-61
2022/04/03 08:22:28;;;;;;;16.50;12.47;;;;;;;-143.11;100.00;65634.97;5096978;28;20187;-63
2022/04/03 08:24:54;;;;;;;19.30;13.73;;;;;;;-143.11;100.00;65634.97;5096842;28;20202;-61
2022/04/03 08:27:19;;;;;;;16.23;12.73;;;;;;;-143.11;100.00;65634.97;5097002;28;20251;-60
2022/04/03 08:29:45;;;;;;;17.77;13.43;;;;;;;-143.11;100.00;65634.97;5096693;28;20196;-61
2022/04/03 08:32:10;;;;;;;17.97;14.03;;;;;;;-143.11;100.00;65634.97;5096828;28;20278;-56
2022/04/03 08:34:36;;;;;;;19.07;14.37;;;;;;;-143.11;100.00;65634.97;5096629;28;20278;-61
2022/04/03 08:37:02;;;;;;;19.17;14.50;;;;;;;-143.11;100.00;65634.97;5096588;28;20195;-61
2022/04/03 08:39:27;;;;;;;19.37;14.47;;;;;;;-143.11;100.00;65634.97;5096700;28;20195;-61
2022/04/03 08:41:54;;;;;;;34.43;22.00;;;;;;;-143.11;100.00;65634.97;5096712;28;20179;-64
2022/04/03 08:44:19;;;;;;;39.83;25.97;;;;;;;-143.11;100.00;65634.97;5096507;28;20215;-65
2022/04/03 08:46:48;;;;;;;30.17;20.87;;;;;;;-143.11;100.00;65634.97;5096604;28;20209;-60
2022/04/03 08:49:16;;;;;;;30.23;21.80;;;;;;;-143.11;100.00;65634.97;5096397;28;20188;-61
2022/04/03 08:51:43;;;;;;;29.33;22.07;;;;;;;-143.11;100.00;65634.97;5096297;28;20199;-57
2022/04/03 08:54:09;;;;;;;27.17;20.20;;;;;;;-143.11;100.00;65634.97;5096476;28;20184;-60
2022/04/03 08:56:35;;;;;;;15.53;13.27;;;;;;;-143.11;100.00;65634.97;5096501;28;20228;-62
2022/04/03 08:59:00;;;;;;;18.03;13.40;;;;;;;-143.11;100.00;65634.97;5096162;28;20267;-60
2022/04/03 09:01:26;;;;;;;15.33;12.53;;;;;;;-143.11;100.00;65634.97;5096507;28;20269;-61
2022/04/03 09:03:51;;;;;;;15.30;12.80;;;;;;;-143.11;100.00;65634.97;5096109;28;20271;-63
2022/04/03 09:06:18;;;;;;;13.53;11.83;;;;;;;-143.11;100.00;65634.97;5096086;28;20188;-64
2022/04/03 09:08:45;;;;;;;13.13;11.43;;;;;;;-143.11;100.00;65634.97;5096264;28;20192;-60
2022/04/03 09:11:11;;;;;;;17.30;13.43;;;;;;;-143.11;100.00;65634.97;5095960;28;20203;-59
2022/04/03 09:13:38;;;;;;;15.07;12.47;;;;;;;-143.11;100.00;65634.97;5096254;28;20187;-59
2022/04/03 09:16:05;;;;;;;13.33;11.47;;;;;;;-143.11;100.00;65634.97;5096291;28;20180;-59
2022/04/03 09:18:48;;;;;;;15.90;12.60;;;;;;;-143.11;100.00;65634.97;5096317;28;20188;-58
2022/04/03 09:21:15;;;;;;;19.77;17.13;;;;;;;-143.11;100.00;65634.97;5096122;28;20188;-59
2022/04/03 09:24:06;;;;;;;18.40;16.50;;;;;;;-143.11;100.00;65634.97;5095961;28;20186;-59
2022/04/03 09:26:33;;;;;;;16.90;15.10;;;;;;;-143.11;100.00;65634.97;5096069;28;20375;-53
2022/04/03 09:29:09;;;;;;;19.20;15.40;;;;;;;-143.11;100.00;65634.97;5096318;28;20219;-58
2022/04/03 09:31:35;;;;;;;16.47;14.37;;;;;;;-143.11;100.00;65634.97;5095591;28;20207;-68
2022/04/03 09:34:01;;;;;;;17.00;14.43;;;;;;;-143.11;100.00;65634.97;5095794;28;20183;-68
2022/04/03 09:36:34;;;;;;;24.27;17.53;;;;;;;-143.11;100.00;65634.97;5095728;28;20244;-67
2022/04/03 09:39:14;;;;;;;14.00;11.73;;;;;;;-143.11;100.00;65634.97;5095437;28;20268;-68
2022/04/03 09:41:59;;;;;;;14.20;11.33;;;;;;;-143.11;100.00;65634.97;5095612;28;20293;-65
2022/04/03 09:44:46;;;;;;;17.17;13.47;;;;;;;-143.11;100.00;65634.97;5095560;28;20185;-65
2022/04/03 09:47:21;;;;;;;17.37;14.20;;;;;;;-143.11;100.00;65634.97;5095645;28;20187;-55
2022/04/03 09:50:01;;;;;;;19.13;12.03;;;;;;;-143.11;100.00;65634.97;5095616;28;20211;-59
2022/04/03 09:52:51;;;;;;;15.77;12.90;;;;;;;-143.11;100.00;65634.97;5095811;28;20188;-59
2022/04/03 09:55:22;;;;;;;14.60;12.10;;;;;;;-143.11;100.00;65634.97;5095636;28;20191;-59
2022/04/03 09:58:00;;;;;;;12.37;11.00;;;;;;;-143.11;100.00;65634.97;5095397;28;20237;-60
2022/04/03 10:00:33;;;;;;;13.20;11.10;;;;;;;-143.11;100.00;65634.97;5095608;28;20296;-59
2022/04/03 10:03:00;;;;;;;12.93;11.03;;;;;;;-143.11;100.00;65634.97;5095073;28;20180;-60
2022/04/03 10:05:28;;;;;;;11.80;10.53;;;;;;;-143.11;100.00;65634.97;5095416;28;20206;-60
2022/04/03 10:07:54;;;;;;;13.33;10.40;;;;;;;-143.11;100.00;65634.97;5095496;28;20191;-65
2022/04/03 10:10:20;;;;;;;12.27;10.37;;;;;;;-143.11;100.00;65634.97;5095308;28;20202;-64
2022/04/03 10:12:46;;;;;;;11.03;9.47;;;;;;;-143.11;100.00;65634.97;5095262;28;20182;-64
2022/04/03 10:15:12;;;;;;;12.10;9.90;;;;;;;-143.11;100.00;65634.97;5094814;28;20189;-65
2022/04/03 10:17:37;;;;;;;12.23;10.90;;;;;;;-143.11;100.00;65634.97;5095092;28;20254;-64
2022/04/03 10:20:03;;;;;;;15.60;11.00;;;;;;;-143.11;100.00;65634.97;5094959;28;20211;-64
2022/04/03 10:22:35;;;;;;;10.93;9.80;;;;;;;-143.11;100.00;65634.97;5095142;28;20182;-55
2022/04/03 10:25:05;;;;;;;11.07;9.20;;;;;;;-143.11;100.00;65634.97;5121260;22;20202;-61
2022/04/03 10:27:37;;;;;;;10.77;9.57;;;;;;;-143.11;100.00;65634.97;5073594;28;20296;-60
2022/04/03 10:30:04;;;;;;;10.20;8.73;;;;;;;-143.11;100.00;65634.97;5074534;28;20228;-60
2022/04/03 10:32:33;;;;;;;11.23;10.07;;;;;;;-143.11;100.00;65634.97;5074864;28;20193;-57
2022/04/03 10:35:04;;;;;;;16.27;13.13;;;;;;;-143.11;100.00;65634.97;5074689;28;20399;-63
2022/04/03 10:37:29;;;;;;;15.27;12.93;;;;;;;-143.11;100.00;65634.97;5074731;28;20274;-61
2022/04/03 10:40:02;;;;;;;15.03;10.10;;;;;;;-143.11;100.00;65634.97;5074440;28;20227;-56
2022/04/03 10:42:28;;;;;;;16.67;11.43;;;;;;;-143.11;100.00;65634.97;5073526;28;20234;-62
2022/04/03 10:45:11;;;;;;;11.70;10.30;;;;;;;-143.11;100.00;65634.97;5074525;28;20187;-53
2022/04/03 10:47:44;;;;;;;10.07;9.07;;;;;;;-143.11;100.00;65634.97;5074464;28;20197;-53
2022/04/03 10:50:11;;;;;;;8.97;8.07;;;;;;;-143.11;100.00;65634.97;5074427;28;20208;-53
2022/04/03 10:52:42;;;;;;;9.63;8.33;;;;;;;-143.11;100.00;65634.97;5074730;28;20285;-59